sensor_id;sensor_type;location;lat;lon;timestamp;pressure;altitude;pressure_sealevel;temperature;humidity
55014;BME280;40916;51.632;5.552;2023-03-04T00:00:45;1022.1796284371173;;;4.839124738710904;0
55014;BME280;40916;51.632;5.552;2023-03-04T00:01:45;1022.1639167951934;;;4.853557878080672;0
55014;BME280;40916;51.632;5.552;2023-03-04T00:02:45;1022.2310938685267;;;4.831907322095603;0
55014;BME280;40916;51.632;5.552;2023-03-04T00:03:45;1022.111157359096;;;4.831907322095603;0
55014;BME280;40916;51.632;5.552;2023-03-04T00:04:45;1022.1844271157896;;;4.824689340600468;0
55014;BME280;40916;51.632;5.552;2023-03-04T00:05:45;1022.1765772576276;;;4.831907322095603;0
55014;BME280;40916;51.632;5.552;2023-03-04T00:06:45;1022.15650826039;;;4.810251682191517;0
55014;BME280;40916;51.632;5.552;2023-03-04T00:07:45;1022.1892166633543;;;4.810251682191517;0
55014;BME280;40916;51.632;5.552;2023-03-04T00:08:45;1022.2504237370406;;;4.817470794030729;0
55014;BME280;40916;51.632;5.552;2023-03-04T00:09:45;1022.2400964200245;;;4.810251682191517;0
55014;BME280;40916;51.632;5.552;2023-03-04T00:10:45;1022.1788882771446;;;4.803032004887871;0
55014;BME280;40916;51.632;5.552;2023-03-04T00:11:46;1022.2001194664358;;;4.810251682191517;0
55014;BME280;40916;51.632;5.552;2023-03-04T00:12:46;1022.1419711954297;;;4.810251682191517;0
55014;BME280;40916;51.632;5.552;2023-03-04T00:13:46;1022.1456054614954;;;4.810251682191517;0
55014;BME280;40916;51.632;5.552;2023-03-04T00:14:46;1022.1492397276772;;;4.810251682191517;0
55014;BME280;40916;51.632;5.552;2023-03-04T00:15:46;1022.2123389195386;;;4.839124738710904;0
55014;BME280;40916;51.632;5.552;2023-03-04T00:17:46;1022.169889586601;;;4.824689340600468;0
55014;BME280;40916;51.632;5.552;2023-03-04T00:18:46;1022.175993939652;;;4.839124738710904;0
55014;BME280;40916;51.632;5.552;2023-03-04T00:19:46;1022.2123389195386;;;4.839124738710904;0
55014;BME280;40916;51.632;5.552;2023-03-04T00:20:46;1022.1147917969145;;;4.831907322095603;0
55014;BME280;40916;51.632;5.552;2023-03-04T00:21:46;1022.1832629346987;;;4.839124738710904;0
55014;BME280;40916;51.632;5.552;2023-03-04T00:22:46;1022.1820898574028;;;4.853557878080672;0
55014;BME280;40916;51.632;5.552;2023-03-04T00:23:47;1022.1572356243096;;;4.84634159064106;0
55014;BME280;40916;51.632;5.552;2023-03-04T00:24:47;1022.1681392879551;;;4.84634159064106;0
55014;BME280;40916;51.632;5.552;2023-03-04T00:25:47;1022.2317940894071;;;4.867988760266201;0
55014;BME280;40916;51.632;5.552;2023-03-04T00:26:47;1022.2069426789324;;;4.8607736012242455;0
55014;BME280;40916;51.632;5.552;2023-03-04T00:27:47;1022.1426974077441;;;4.84634159064106;0
55014;BME280;40916;51.632;5.552;2023-03-04T00:28:47;1022.1214764916332;;;4.839124738710904;0
55014;BME280;40916;51.632;5.552;2023-03-04T00:29:47;1022.2371958486892;;;4.84634159064106;0
55014;BME280;40916;51.632;5.552;2023-03-04T00:30:47;1022.1469179641183;;;4.839124738710904;0
55014;BME280;40916;51.632;5.552;2023-03-04T00:31:47;1022.1754083976338;;;4.84634159064106;0
55014;BME280;40916;51.632;5.552;2023-03-04T00:32:47;1022.1178419960291;;;4.839124738710904;0
55014;BME280;40916;51.632;5.552;2023-03-04T00:33:47;1022.1033040147765;;;4.839124738710904;0
55014;BME280;40916;51.632;5.552;2023-03-04T00:34:48;1022.1354283001594;;;4.84634159064106;0
55014;BME280;40916;51.632;5.552;2023-03-04T00:35:48;1022.1360144752124;;;4.839124738710904;0
55014;BME280;40916;51.632;5.552;2023-03-04T00:36:48;1022.1160759381045;;;4.8607736012242455;0
55014;BME280;40916;51.632;5.552;2023-03-04T00:37:48;1022.114887454238;;;4.875203355400867;0
55014;BME280;40916;51.632;5.552;2023-03-04T00:38:48;1022.1215595623004;;;4.882417386822482;0
55014;BME280;40916;51.632;5.552;2023-03-04T00:39:48;1022.0985482501552;;;4.8968437593030885;0
55014;BME280;40916;51.632;5.552;2023-03-04T00:40:48;1022.0646214765247;;;4.911267879260162;0
55014;BME280;40916;51.632;5.552;2023-03-04T00:41:48;1022.1560715388581;;;4.947318334535439;0
55014;BME280;40916;51.632;5.552;2023-03-04T00:42:48;1022.0536608955856;;;4.954526739490202;0
55014;BME280;40916;51.632;5.552;2023-03-04T00:43:48;1022.1020553319521;;;4.983354745417763;0
55014;BME280;40916;51.632;5.552;2023-03-04T00:44:48;1022.0838771053863;;;4.983354745417763;0
55014;BME280;40916;51.632;5.552;2023-03-04T00:45:48;1022.0777033161248;;;5.012173778381694;0
55014;BME280;40916;51.632;5.552;2023-03-04T00:46:49;1022.0674337168655;;;5.0049698606812605;0
55014;BME280;40916;51.632;5.552;2023-03-04T00:47:49;1021.9279901324994;;;5.019377136042756;0
55014;BME280;40916;51.632;5.552;2023-03-04T00:48:49;1022.1174644617107;;;5.055385530490785;0
55014;BME280;40916;51.632;5.552;2023-03-04T00:49:49;1022.1459020725308;;;5.0625855319543405;0
55014;BME280;40916;51.632;5.552;2023-03-04T00:50:49;1022.0011054568994;;;5.055385530490785;0
55014;BME280;40916;51.632;5.552;2023-03-04T00:51:49;1022.0688846662783;;;5.0697849747239445;0
55014;BME280;40916;51.632;5.552;2023-03-04T00:52:49;1022.0761573346947;;;5.0697849747239445;0
55014;BME280;40916;51.632;5.552;2023-03-04T00:53:49;1022.0936816342665;;;5.0769838589914436;0
55014;BME280;40916;51.632;5.552;2023-03-04T00:54:49;1022.1270660266509;;;5.0697849747239445;0
55014;BME280;40916;51.632;5.552;2023-03-04T00:55:49;1022.0979753427386;;;5.0697849747239445;0
55014;BME280;40916;51.632;5.552;2023-03-04T00:56:49;1022.148884044476;;;5.0697849747239445;0
55014;BME280;40916;51.632;5.552;2023-03-04T00:57:49;1022.1538266751656;;;5.055385530490785;0
55014;BME280;40916;51.632;5.552;2023-03-04T00:58:50;1022.1647353414725;;;5.055385530490785;0
55014;BME280;40916;51.632;5.552;2023-03-04T00:59:50;1022.1756440088274;;;5.055385530490785;0
55014;BME280;40916;51.632;5.552;2023-03-04T01:00:50;1022.1042186566486;;;5.04098385071396;0
55014;BME280;40916;51.632;5.552;2023-03-04T01:01:50;1022.1551241442014;;;5.04098385071396;0
55014;BME280;40916;51.632;5.552;2023-03-04T01:02:50;1022.0473330701712;;;5.026579933856919;0
55014;BME280;40916;51.632;5.552;2023-03-04T01:03:50;1022.0740674414432;;;5.012173778381694;0
55014;BME280;40916;51.632;5.552;2023-03-04T01:04:50;1022.1455048075226;;;5.026579933856919;0
55014;BME280;40916;51.632;5.552;2023-03-04T01:05:50;1022.1286055738922;;;5.012173778381694;0
55014;BME280;40916;51.632;5.552;2023-03-04T01:06:50;1022.0819769855503;;;5.0049698606812605;0
55014;BME280;40916;51.632;5.552;2023-03-04T01:07:50;1022.1401500789153;;;5.0049698606812605;0
55014;BME280;40916;51.632;5.552;2023-03-04T01:08:50;1022.1698708421648;;;4.997765382748902;0
55014;BME280;40916;51.632;5.552;2023-03-04T01:09:50;1022.1638613240424;;;4.983354745417763;0
55014;BME280;40916;51.632;5.552;2023-03-04T01:10:51;1022.1638613240424;;;4.983354745417763;0
55014;BME280;40916;51.632;5.552;2023-03-04T01:11:51;1022.091777230683;;;4.976148585633428;0
55014;BME280;40916;51.632;5.552;2023-03-04T01:12:51;1022.1396657569492;;;4.968941864846066;0
55014;BME280;40916;51.632;5.552;2023-03-04T01:13:51;1022.1257475223966;;;4.9617345828626895;0
55014;BME280;40916;51.632;5.552;2023-03-04T01:14:51;1022.1445462838002;;;4.954526739490202;0
55014;BME280;40916;51.632;5.552;2023-03-04T01:15:51;1022.0936504574385;;;4.954526739490202;0
55014;BME280;40916;51.632;5.552;2023-03-04T01:16:51;1022.1518171179997;;;4.954526739490202;0
55014;BME280;40916;51.632;5.552;2023-03-04T01:17:51;1022.1409108668752;;;4.954526739490202;0
55014;BME280;40916;51.632;5.552;2023-03-04T01:18:51;1022.0651875790575;;;4.947318334535439;0
55014;BME280;40916;51.632;5.552;2023-03-04T01:19:51;1022.1269886638081;;;4.947318334535439;0
55014;BME280;40916;51.632;5.552;2023-03-04T01:20:51;1022.0718379674094;;;4.954526739490202;0
55014;BME280;40916;51.632;5.552;2023-03-04T01:21:51;1022.0566735396275;;;4.9617345828626895;0
55014;BME280;40916;51.632;5.552;2023-03-04T01:22:52;1022.1069459752297;;;4.968941864846066;0
55014;BME280;40916;51.632;5.552;2023-03-04T01:23:52;1022.0935198502646;;;4.997765382748902;0
55014;BME280;40916;51.632;5.552;2023-03-04T01:24:52;1022.118970175194;;;4.997765382748902;0
55014;BME280;40916;51.632;5.552;2023-03-04T01:25:52;1022.049890735084;;;4.997765382748902;0
55014;BME280;40916;51.632;5.552;2023-03-04T01:26:52;1022.1134225820612;;;5.019377136042756;0
55014;BME280;40916;51.632;5.552;2023-03-04T01:27:52;1022.1333075038846;;;5.04098385071396;0
55014;BME280;40916;51.632;5.552;2023-03-04T01:28:52;1022.1660324659316;;;5.04098385071396;0
55014;BME280;40916;51.632;5.552;2023-03-04T01:29:52;1022.1012288364938;;;5.033782172016558;0
55014;BME280;40916;51.632;5.552;2023-03-04T01:30:52;1022.1121369806779;;;5.033782172016558;0
55014;BME280;40916;51.632;5.552;2023-03-04T01:31:52;1022.0975927886653;;;5.033782172016558;0
55014;BME280;40916;51.632;5.552;2023-03-04T01:32:52;1022.0522521957977;;;5.012173778381694;0
55014;BME280;40916;51.632;5.552;2023-03-04T01:33:52;1022.0691490044703;;;5.026579933856919;0
55014;BME280;40916;51.632;5.552;2023-03-04T01:34:52;1022.0479758005814;;;5.019377136042756;0
55014;BME280;40916;51.632;5.552;2023-03-04T01:35:53;1022.1055089042827;;;5.026579933856919;0
55014;BME280;40916;51.632;5.552;2023-03-04T01:36:53;1022.1296713975726;;;5.04098385071396;0
55014;BME280;40916;51.632;5.552;2023-03-04T01:37:53;1022.0261602151367;;;5.019377136042756;0
55014;BME280;40916;51.632;5.552;2023-03-04T01:38:53;1022.0757765041393;;;5.033782172016558;0
55014;BME280;40916;51.632;5.552;2023-03-04T01:39:53;1022.0086217170791;;;5.012173778381694;0
55014;BME280;40916;51.632;5.552;2023-03-04T01:40:53;1021.9831706122347;;;5.012173778381694;0
55014;BME280;40916;51.632;5.552;2023-03-04T01:41:53;1022.0377087010288;;;5.012173778381694;0
55014;BME280;40916;51.632;5.552;2023-03-04T01:42:53;1022.0317119420392;;;4.997765382748902;0
55014;BME280;40916;51.632;5.552;2023-03-04T01:43:54;1021.9893503741523;;;4.983354745417763;0
55014;BME280;40916;51.632;5.552;2023-03-04T01:44:54;1021.9803286601862;;;4.9617345828626895;0
55014;BME280;40916;51.632;5.552;2023-03-04T01:45:54;1021.9591401690047;;;4.954526739490202;0
55014;BME280;40916;51.632;5.552;2023-03-04T01:46:54;1021.9185257001365;;;4.9617345828626895;0
55014;BME280;40916;51.632;5.552;2023-03-04T01:47:54;1021.946982733646;;;4.968941864846066;0
55014;BME280;40916;51.632;5.552;2023-03-04T01:48:54;1021.9251695817978;;;4.968941864846066;0
55014;BME280;40916;51.632;5.552;2023-03-04T01:49:55;1021.9348157573097;;;4.983354745417763;0
55014;BME280;40916;51.632;5.552;2023-03-04T01:50:54;1021.8924498618818;;;4.968941864846066;0
55014;BME280;40916;51.632;5.552;2023-03-04T01:51:54;1021.8639937044959;;;4.9617345828626895;0
55014;BME280;40916;51.632;5.552;2023-03-04T01:52:54;1021.9106274828935;;;4.968941864846066;0
55014;BME280;40916;51.632;5.552;2023-03-04T01:53:54;1021.8276390552841;;;4.9617345828626895;0
55014;BME280;40916;51.632;5.552;2023-03-04T01:54:55;1021.8319008536156;;;4.954526739490202;0
55014;BME280;40916;51.632;5.552;2023-03-04T01:55:55;1021.7822528019055;;;4.940109367805135;0
55014;BME280;40916;51.632;5.552;2023-03-04T01:56:55;1021.8186057114254;;;4.940109367805135;0
55014;BME280;40916;51.632;5.552;2023-03-04T01:57:55;1021.7798564000672;;;4.925689748244412;0
55014;BME280;40916;51.632;5.552;2023-03-04T01:59:11;1021.792603116712;;;4.904056100750115;0
55014;BME280;40916;51.632;5.552;2023-03-04T02:00:28;1021.7641328502378;;;4.8968437593030885;0
55014;BME280;40916;51.632;5.552;2023-03-04T02:00:55;1021.7508063848289;;;4.882417386822482;0
55014;BME280;40916;51.632;5.552;2023-03-04T02:01:56;1021.7665496744266;;;4.867988760266201;0
55014;BME280;40916;51.632;5.552;2023-03-04T02:03:55;1021.7132257828192;;;4.853557878080672;0
55014;BME280;40916;51.632;5.552;2023-03-04T02:04:56;1021.7671483290018;;;4.8607736012242455;0
55014;BME280;40916;51.632;5.552;2023-03-04T02:05:56;1021.6707999238279;;;4.839124738710904;0
55014;BME280;40916;51.632;5.552;2023-03-04T02:06:56;1021.7380710766388;;;4.8607736012242455;0
55014;BME280;40916;51.632;5.552;2023-03-04T02:07:56;1021.7029172363722;;;4.84634159064106;0
55014;BME280;40916;51.632;5.552;2023-03-04T02:08:56;1021.6811099994683;;;4.84634159064106;0
55014;BME280;40916;51.632;5.552;2023-03-04T02:09:56;1021.6817033680652;;;4.839124738710904;0
55014;BME280;40916;51.632;5.552;2023-03-04T02:10:56;1021.7047595439502;;;4.867988760266201;0
55014;BME280;40916;51.632;5.552;2023-03-04T02:11:56;1021.6877836015879;;;4.853557878080672;0
55014;BME280;40916;51.632;5.552;2023-03-04T02:12:57;1021.6562619998068;;;4.839124738710904;0
55014;BME280;40916;51.632;5.552;2023-03-04T02:13:57;1021.7313987729029;;;4.853557878080672;0
55014;BME280;40916;51.632;5.552;2023-03-04T02:14:57;1021.7235324532494;;;4.8607736012242455;0
55014;BME280;40916;51.632;5.552;2023-03-04T02:15:57;1021.6265919255299;;;4.84634159064106;0
55014;BME280;40916;51.632;5.552;2023-03-04T02:16:57;1021.5757084134686;;;4.84634159064106;0
55014;BME280;40916;51.632;5.552;2023-03-04T02:17:57;1021.6368992562259;;;4.853557878080672;0
55014;BME280;40916;51.632;5.552;2023-03-04T02:18:57;1021.6368992562259;;;4.853557878080672;0
55014;BME280;40916;51.632;5.552;2023-03-04T02:19:59;1021.630226462978;;;4.84634159064106;0
55014;BME280;40916;51.632;5.552;2023-03-04T02:21:00;1021.5611702713533;;;4.84634159064106;0
55014;BME280;40916;51.632;5.552;2023-03-04T02:21:58;1021.6217621416415;;;4.8607736012242455;0
55014;BME280;40916;51.632;5.552;2023-03-04T02:23:00;1021.6084192400334;;;4.84634159064106;0
55014;BME280;40916;51.632;5.552;2023-03-04T02:24:01;1021.5896495273773;;;4.853557878080672;0
55014;BME280;40916;51.632;5.552;2023-03-04T02:24:58;1021.683551248526;;;4.8607736012242455;0
55014;BME280;40916;51.632;5.552;2023-03-04T02:26:08;1021.5581310613461;;;4.839124738710904;0
55014;BME280;40916;51.632;5.552;2023-03-04T02:26:58;1021.5823803400688;;;4.853557878080672;0
55014;BME280;40916;51.632;5.552;2023-03-04T02:27:58;1021.5108828619612;;;4.839124738710904;0
55014;BME280;40916;51.632;5.552;2023-03-04T02:28:59;1021.5720738777653;;;4.84634159064106;0
55014;BME280;40916;51.632;5.552;2023-03-04T02:29:58;1021.5678419668475;;;4.853557878080672;0
55014;BME280;40916;51.632;5.552;2023-03-04T02:30:58;1021.5823803400688;;;4.853557878080672;0
55014;BME280;40916;51.632;5.552;2023-03-04T02:31:59;1021.5781463217301;;;4.8607736012242455;0
55014;BME280;40916;51.632;5.552;2023-03-04T02:32:59;1021.462438816658;;;4.853557878080672;0
55014;BME280;40916;51.632;5.552;2023-03-04T02:33:59;1021.5157546476755;;;4.867988760266201;0
55014;BME280;40916;51.632;5.552;2023-03-04T02:34:59;1021.5714809473754;;;4.8968437593030885;0
55014;BME280;40916;51.632;5.552;2023-03-04T02:35:59;1021.5575520086925;;;4.889630854725205;0
55014;BME280;40916;51.632;5.552;2023-03-04T02:36:59;1021.449115967;;;4.882417386822482;0
55014;BME280;40916;51.632;5.552;2023-03-04T02:37:59;1021.5060520735836;;;4.8968437593030885;0
55014;BME280;40916;51.632;5.552;2023-03-04T02:39:00;1021.4569935923474;;;4.875203355400867;0
55014;BME280;40916;51.632;5.552;2023-03-04T02:39:59;1021.4206459762787;;;4.875203355400867;0
55014;BME280;40916;51.632;5.552;2023-03-04T02:41:00;1021.549058170691;;;4.904056100750115;0
55014;BME280;40916;51.632;5.552;2023-03-04T02:42:00;1021.5351315683926;;;4.8968437593030885;0
55014;BME280;40916;51.632;5.552;2023-03-04T02:43:00;1021.5199782120435;;;4.904056100750115;0
55014;BME280;40916;51.632;5.552;2023-03-04T02:44:00;1021.4775846659368;;;4.889630854725205;0
55014;BME280;40916;51.632;5.552;2023-03-04T02:45:00;1021.5169568832642;;;4.8968437593030885;0
55014;BME280;40916;51.632;5.552;2023-03-04T02:46:00;1021.4636552458619;;;4.882417386822482;0
55014;BME280;40916;51.632;5.552;2023-03-04T02:47:00;1021.4927338091705;;;4.882417386822482;0
55014;BME280;40916;51.632;5.552;2023-03-04T02:48:00;1021.4527507865408;;;4.882417386822482;0
55014;BME280;40916;51.632;5.552;2023-03-04T02:49:00;1021.482436930518;;;4.875203355400867;0
55014;BME280;40916;51.632;5.552;2023-03-04T02:50:01;1021.4775846659368;;;4.889630854725205;0
55014;BME280;40916;51.632;5.552;2023-03-04T02:51:01;1021.4273070521973;;;4.882417386822482;0
55014;BME280;40916;51.632;5.552;2023-03-04T02:52:01;1021.4285217247271;;;4.867988760266201;0
55014;BME280;40916;51.632;5.552;2023-03-04T02:53:01;1021.4606283545942;;;4.875203355400867;0
55014;BME280;40916;51.632;5.552;2023-03-04T02:54:01;1021.441846328267;;;4.882417386822482;0
55014;BME280;40916;51.632;5.552;2023-03-04T02:55:01;1021.4121568819318;;;4.889630854725205;0
55014;BME280;40916;51.632;5.552;2023-03-04T02:56:01;1021.4406232374905;;;4.8968437593030885;0
55014;BME280;40916;51.632;5.552;2023-03-04T02:57:02;1021.369149966534;;;4.882417386822482;0
55014;BME280;40916;51.632;5.552;2023-03-04T02:58:01;1021.3982285056425;;;4.882417386822482;0
55014;BME280;40916;51.632;5.552;2023-03-04T02:59:01;1021.449115967;;;4.882417386822482;0
55014;BME280;40916;51.632;5.552;2023-03-04T03:00:02;1021.4127677779892;;;4.882417386822482;0
55014;BME280;40916;51.632;5.552;2023-03-04T03:02:02;1021.278276628536;;;4.839124738710904;0
55014;BME280;40916;51.632;5.552;2023-03-04T03:03:02;1021.2964489733644;;;4.839124738710904;0
55014;BME280;40916;51.632;5.552;2023-03-04T03:04:02;1021.3291592013842;;;4.839124738710904;0
55014;BME280;40916;51.632;5.552;2023-03-04T03:05:02;1021.3169958084113;;;4.810251682191517;0
55014;BME280;40916;51.632;5.552;2023-03-04T03:06:02;1021.3388012481355;;;4.810251682191517;0
55014;BME280;40916;51.632;5.552;2023-03-04T03:07:02;1021.2672919707426;;;4.795811761924753;0
55014;BME280;40916;51.632;5.552;2023-03-04T03:08:02;1021.2757265854287;;;4.781369578239456;0
55014;BME280;40916;51.632;5.552;2023-03-04T03:09:02;1021.3193346887124;;;4.781369578239456;0
55014;BME280;40916;51.632;5.552;2023-03-04T03:10:03;1021.3405577122993;;;4.788590953107022;0
55014;BME280;40916;51.632;5.552;2023-03-04T03:11:03;1021.3587280516726;;;4.788590953107022;0
55014;BME280;40916;51.632;5.552;2023-03-04T03:13:03;1021.4132390872377;;;4.788590953107022;0
55014;BME280;40916;51.632;5.552;2023-03-04T03:14:03;1021.3453515055857;;;4.774147637126738;0
55014;BME280;40916;51.632;5.552;2023-03-04T03:15:03;1021.3095890823964;;;4.766925129573465;0
55014;BME280;40916;51.632;5.552;2023-03-04T03:16:03;1021.2743988073252;;;4.7524784143631855;0
55014;BME280;40916;51.632;5.552;2023-03-04T03:17:03;1021.2344272626817;;;4.7524784143631855;0
55014;BME280;40916;51.632;5.552;2023-03-04T03:18:03;1021.2453285916437;;;4.7524784143631855;0
55014;BME280;40916;51.632;5.552;2023-03-04T03:19:04;1021.2835743293263;;;4.774147637126738;0
55014;BME280;40916;51.632;5.552;2023-03-04T03:20:04;1021.216258383404;;;4.7524784143631855;0
55014;BME280;40916;51.632;5.552;2023-03-04T03:21:04;1021.216258383404;;;4.7524784143631855;0
55014;BME280;40916;51.632;5.552;2023-03-04T03:22:04;1021.2271597106219;;;4.7524784143631855;0
55014;BME280;40916;51.632;5.552;2023-03-04T03:23:04;1021.2053570572327;;;4.7524784143631855;0
55014;BME280;40916;51.632;5.552;2023-03-04T03:24:04;1021.2738255936547;;;4.7597020553841425;0
55014;BME280;40916;51.632;5.552;2023-03-04T03:25:04;1021.2483887513389;;;4.7597020553841425;0
55014;BME280;40916;51.632;5.552;2023-03-04T03:26:04;1021.2732501504067;;;4.766925129573465;0
55014;BME280;40916;51.632;5.552;2023-03-04T03:27:04;1021.216258383404;;;4.7524784143631855;0
55014;BME280;40916;51.632;5.552;2023-03-04T03:28:04;1021.295628605889;;;4.7597020553841425;0
55014;BME280;40916;51.632;5.552;2023-03-04T03:29:05;1021.1592614121452;;;4.738029431043575;0
55014;BME280;40916;51.632;5.552;2023-03-04T03:30:05;1021.1955980029134;;;4.738029431043575;0
55014;BME280;40916;51.632;5.552;2023-03-04T03:31:05;1021.2671312527071;;;4.7524784143631855;0
55014;BME280;40916;51.632;5.552;2023-03-04T03:32:05;1021.2076319823934;;;4.723578178048157;0
55014;BME280;40916;51.632;5.552;2023-03-04T03:33:05;1021.2392019271836;;;4.738029431043575;0
55014;BME280;40916;51.632;5.552;2023-03-04T03:34:05;1021.2319346053091;;;4.738029431043575;0
55014;BME280;40916;51.632;5.552;2023-03-04T03:35:05;1021.2283009445464;;;4.738029431043575;0
55014;BME280;40916;51.632;5.552;2023-03-04T03:36:06;1021.1567623668511;;;4.723578178048157;0
55014;BME280;40916;51.632;5.552;2023-03-04T03:37:05;1021.1416617740563;;;4.7308040883533025;0
55014;BME280;40916;51.632;5.552;2023-03-04T03:38:05;1021.1726530849983;;;4.7524784143631855;0
55014;BME280;40916;51.632;5.552;2023-03-04T03:39:06;1021.18355440803;;;4.7524784143631855;0
55014;BME280;40916;51.632;5.552;2023-03-04T03:40:06;1021.1743641814953;;;4.7308040883533025;0
55014;BME280;40916;51.632;5.552;2023-03-04T03:41:06;1021.1701623881547;;;4.738029431043575;0
55014;BME280;40916;51.632;5.552;2023-03-04T03:42:06;1021.2187417742259;;;4.766925129573465;0
55014;BME280;40916;51.632;5.552;2023-03-04T03:43:06;1021.1955980029134;;;4.738029431043575;0
55014;BME280;40916;51.632;5.552;2023-03-04T03:44:06;1021.1804931147245;;;4.745254206314918;0
55014;BME280;40916;51.632;5.552;2023-03-04T03:45:06;1021.1617517630132;;;4.7524784143631855;0
55014;BME280;40916;51.632;5.552;2023-03-04T03:46:06;1021.112023861529;;;4.738029431043575;0
55014;BME280;40916;51.632;5.552;2023-03-04T03:47:06;1021.1556277537077;;;4.738029431043575;0
55014;BME280;40916;51.632;5.552;2023-03-04T03:48:07;1021.1508504420746;;;4.7524784143631855;0
55014;BME280;40916;51.632;5.552;2023-03-04T03:49:07;1021.1454842921528;;;4.774147637126738;0
55014;BME280;40916;51.632;5.552;2023-03-04T03:50:07;1021.1315284267592;;;4.766925129573465;0
55014;BME280;40916;51.632;5.552;2023-03-04T03:51:07;1021.1091448365961;;;4.774147637126738;0
55014;BME280;40916;51.632;5.552;2023-03-04T03:52:07;1021.1158303499977;;;4.781369578239456;0
55014;BME280;40916;51.632;5.552;2023-03-04T03:53:07;1021.1449023760567;;;4.781369578239456;0
55014;BME280;40916;51.632;5.552;2023-03-04T03:54:07;1021.0728053926684;;;4.774147637126738;0
55014;BME280;40916;51.632;5.552;2023-03-04T03:55:08;1021.1055108916801;;;4.774147637126738;0
55014;BME280;40916;51.632;5.552;2023-03-04T03:56:07;1021.1121963472635;;;4.781369578239456;0
55014;BME280;40916;51.632;5.552;2023-03-04T03:57:08;1021.1024573258219;;;4.766925129573465;0
55014;BME280;40916;51.632;5.552;2023-03-04T03:58:08;1021.1594383918774;;;4.781369578239456;0
55014;BME280;40916;51.632;5.552;2023-03-04T03:59:08;1021.0594295296581;;;4.7597020553841425;0
55014;BME280;40916;51.632;5.552;2023-03-04T04:00:08;1021.2284844924362;;;4.781369578239456;0
55014;BME280;40916;51.632;5.552;2023-03-04T04:01:10;1021.062484574185;;;4.766925129573465;0
55014;BME280;40916;51.632;5.552;2023-03-04T04:02:08;1021.1127787816284;;;4.774147637126738;0
55014;BME280;40916;51.632;5.552;2023-03-04T04:03:09;1021.1340003654125;;;4.781369578239456;0
55014;BME280;40916;51.632;5.552;2023-03-04T04:04:08;1021.0571007945329;;;4.788590953107022;0
55014;BME280;40916;51.632;5.552;2023-03-04T04:05:09;1021.0989416414628;;;4.810251682191517;0
55014;BME280;40916;51.632;5.552;2023-03-04T04:06:08;1021.1025758741475;;;4.810251682191517;0
55014;BME280;40916;51.632;5.552;2023-03-04T04:07:09;1021.1444010300185;;;4.831907322095603;0
55014;BME280;40916;51.632;5.552;2023-03-04T04:08:10;1021.0941175911164;;;4.824689340600468;0
55014;BME280;40916;51.632;5.552;2023-03-04T04:09:09;1021.1777076174799;;;4.824689340600468;0
55014;BME280;40916;51.632;5.552;2023-03-04T04:10:09;1021.159535867384;;;4.824689340600468;0
55014;BME280;40916;51.632;5.552;2023-03-04T04:11:09;1021.1704389170926;;;4.824689340600468;0
55014;BME280;40916;51.632;5.552;2023-03-04T04:12:10;1021.193431729065;;;4.810251682191517;0
55014;BME280;40916;51.632;5.552;2023-03-04T04:13:09;1021.1619024574296;;;4.795811761924753;0
55014;BME280;40916;51.632;5.552;2023-03-04T04:14:10;1021.1655365769501;;;4.795811761924753;0
55014;BME280;40916;51.632;5.552;2023-03-04T04:15:10;1021.1897974934725;;;4.810251682191517;0
55014;BME280;40916;51.632;5.552;2023-03-04T04:16:09;1021.20433443654;;;4.810251682191517;0
55014;BME280;40916;51.632;5.552;2023-03-04T04:17:10;1021.212192637993;;;4.803032004887871;0
55014;BME280;40916;51.632;5.552;2023-03-04T04:18:10;1021.1739744095588;;;4.781369578239456;0
55014;BME280;40916;51.632;5.552;2023-03-04T04:19:13;1021.1957784395697;;;4.781369578239456;0
55014;BME280;40916;51.632;5.552;2023-03-04T04:20:10;1021.1770247887746;;;4.788590953107022;0
55014;BME280;40916;51.632;5.552;2023-03-04T04:21:10;1021.2175824737673;;;4.781369578239456;0